sensor_id;sensor_type;location;lat;lon;timestamp;P1;durP1;ratioP1;P2;durP2;ratioP2
71176;SDS011;58877;51.992;4.504;2023-04-25T00:00:27;6.86;;;4.94;;
71176;SDS011;58877;51.992;4.504;2023-04-25T00:02:53;6.44;;;4.63;;
71176;SDS011;58877;51.992;4.504;2023-04-25T00:05:22;6.15;;;4.49;;
71176;SDS011;58877;51.992;4.504;2023-04-25T00:07:49;6.15;;;4.49;;
71176;SDS011;58877;51.992;4.504;2023-04-25T00:10:15;5.93;;;4.46;;
71176;SDS011;58877;51.992;4.504;2023-04-25T00:12:40;6.29;;;4.62;;
71176;SDS011;58877;51.992;4.504;2023-04-25T00:15:06;6.54;;;4.67;;
71176;SDS011;58877;51.992;4.504;2023-04-25T00:17:32;7.26;;;5.02;;
71176;SDS011;58877;51.992;4.504;2023-04-25T00:19:58;7.61;;;5.22;;
71176;SDS011;58877;51.992;4.504;2023-04-25T00:22:23;7.46;;;5.18;;
71176;SDS011;58877;51.992;4.504;2023-04-25T00:24:49;7.39;;;5.34;;
71176;SDS011;58877;51.992;4.504;2023-04-25T00:27:15;6.75;;;4.93;;
71176;SDS011;58877;51.992;4.504;2023-04-25T00:29:41;5.89;;;4.36;;
71176;SDS011;58877;51.992;4.504;2023-04-25T00:32:07;6.00;;;4.48;;
71176;SDS011;58877;51.992;4.504;2023-04-25T00:34:33;5.99;;;4.38;;
71176;SDS011;58877;51.992;4.504;2023-04-25T00:36:59;5.45;;;4.03;;
71176;SDS011;58877;51.992;4.504;2023-04-25T00:39:27;5.52;;;4.14;;
71176;SDS011;58877;51.992;4.504;2023-04-25T00:41:53;5.47;;;4.13;;
71176;SDS011;58877;51.992;4.504;2023-04-25T00:44:20;6.56;;;4.68;;
71176;SDS011;58877;51.992;4.504;2023-04-25T00:46:47;7.29;;;5.03;;
71176;SDS011;58877;51.992;4.504;2023-04-25T00:49:13;5.98;;;4.29;;
71176;SDS011;58877;51.992;4.504;2023-04-25T00:51:40;6.11;;;4.44;;
71176;SDS011;58877;51.992;4.504;2023-04-25T00:54:06;5.87;;;4.41;;
71176;SDS011;58877;51.992;4.504;2023-04-25T00:56:32;5.05;;;3.95;;
71176;SDS011;58877;51.992;4.504;2023-04-25T00:58:58;4.68;;;3.76;;
71176;SDS011;58877;51.992;4.504;2023-04-25T01:01:24;5.16;;;4.20;;
71176;SDS011;58877;51.992;4.504;2023-04-25T01:03:50;5.06;;;4.08;;
71176;SDS011;58877;51.992;4.504;2023-04-25T01:06:17;4.90;;;3.89;;
71176;SDS011;58877;51.992;4.504;2023-04-25T01:08:43;5.14;;;4.08;;
71176;SDS011;58877;51.992;4.504;2023-04-25T01:11:09;5.16;;;4.09;;
71176;SDS011;58877;51.992;4.504;2023-04-25T01:13:34;5.92;;;4.46;;
71176;SDS011;58877;51.992;4.504;2023-04-25T01:16:01;5.80;;;4.33;;
71176;SDS011;58877;51.992;4.504;2023-04-25T01:18:28;5.17;;;3.88;;
71176;SDS011;58877;51.992;4.504;2023-04-25T01:20:53;5.56;;;4.19;;
71176;SDS011;58877;51.992;4.504;2023-04-25T01:23:21;4.91;;;3.79;;
71176;SDS011;58877;51.992;4.504;2023-04-25T01:25:48;5.20;;;4.03;;
71176;SDS011;58877;51.992;4.504;2023-04-25T01:28:15;4.97;;;3.83;;
71176;SDS011;58877;51.992;4.504;2023-04-25T01:30:41;4.68;;;3.60;;
71176;SDS011;58877;51.992;4.504;2023-04-25T01:33:08;4.87;;;3.73;;
71176;SDS011;58877;51.992;4.504;2023-04-25T01:35:40;5.08;;;3.88;;
71176;SDS011;58877;51.992;4.504;2023-04-25T01:38:06;4.03;;;3.15;;
71176;SDS011;58877;51.992;4.504;2023-04-25T01:40:32;4.50;;;3.51;;
71176;SDS011;58877;51.992;4.504;2023-04-25T01:43:00;4.41;;;3.43;;
71176;SDS011;58877;51.992;4.504;2023-04-25T01:45:25;4.62;;;3.41;;
71176;SDS011;58877;51.992;4.504;2023-04-25T01:47:51;4.86;;;3.48;;
71176;SDS011;58877;51.992;4.504;2023-04-25T01:50:18;6.32;;;4.48;;
71176;SDS011;58877;51.992;4.504;2023-04-25T01:52:44;4.65;;;3.40;;
71176;SDS011;58877;51.992;4.504;2023-04-25T01:55:10;5.98;;;4.35;;
71176;SDS011;58877;51.992;4.504;2023-04-25T01:57:35;4.63;;;3.40;;
71176;SDS011;58877;51.992;4.504;2023-04-25T02:00:02;4.28;;;3.24;;
71176;SDS011;58877;51.992;4.504;2023-04-25T02:02:32;4.77;;;3.67;;
71176;SDS011;58877;51.992;4.504;2023-04-25T02:04:57;4.23;;;3.26;;
71176;SDS011;58877;51.992;4.504;2023-04-25T02:07:23;4.41;;;3.42;;
71176;SDS011;58877;51.992;4.504;2023-04-25T02:09:51;4.22;;;3.23;;
71176;SDS011;58877;51.992;4.504;2023-04-25T02:12:17;4.09;;;3.17;;
71176;SDS011;58877;51.992;4.504;2023-04-25T02:14:42;3.79;;;3.00;;
71176;SDS011;58877;51.992;4.504;2023-04-25T02:17:08;4.15;;;3.30;;
71176;SDS011;58877;51.992;4.504;2023-04-25T02:19:33;4.38;;;3.46;;
71176;SDS011;58877;51.992;4.504;2023-04-25T02:21:59;4.08;;;3.21;;
71176;SDS011;58877;51.992;4.504;2023-04-25T02:24:24;4.79;;;3.63;;
71176;SDS011;58877;51.992;4.504;2023-04-25T02:26:50;3.30;;;2.50;;
71176;SDS011;58877;51.992;4.504;2023-04-25T02:29:16;3.55;;;2.67;;
71176;SDS011;58877;51.992;4.504;2023-04-25T02:31:42;3.38;;;2.54;;
71176;SDS011;58877;51.992;4.504;2023-04-25T02:34:07;3.84;;;2.89;;
71176;SDS011;58877;51.992;4.504;2023-04-25T02:36:33;3.70;;;2.79;;
71176;SDS011;58877;51.992;4.504;2023-04-25T02:39:00;3.91;;;3.02;;
71176;SDS011;58877;51.992;4.504;2023-04-25T02:41:26;3.42;;;2.68;;
71176;SDS011;58877;51.992;4.504;2023-04-25T02:43:52;3.99;;;3.04;;
71176;SDS011;58877;51.992;4.504;2023-04-25T02:46:17;4.50;;;3.33;;
71176;SDS011;58877;51.992;4.504;2023-04-25T02:48:43;4.26;;;3.14;;
71176;SDS011;58877;51.992;4.504;2023-04-25T02:51:09;4.14;;;3.13;;
71176;SDS011;58877;51.992;4.504;2023-04-25T02:53:34;4.38;;;3.32;;
71176;SDS011;58877;51.992;4.504;2023-04-25T02:56:00;4.17;;;3.13;;
71176;SDS011;58877;51.992;4.504;2023-04-25T02:58:26;4.33;;;3.20;;
71176;SDS011;58877;51.992;4.504;2023-04-25T03:00:52;3.84;;;2.88;;
71176;SDS011;58877;51.992;4.504;2023-04-25T03:03:21;3.37;;;2.56;;
71176;SDS011;58877;51.992;4.504;2023-04-25T03:05:48;3.94;;;2.97;;
71176;SDS011;58877;51.992;4.504;2023-04-25T03:08:15;4.07;;;3.06;;
71176;SDS011;58877;51.992;4.504;2023-04-25T03:10:41;3.83;;;2.87;;
71176;SDS011;58877;51.992;4.504;2023-04-25T03:13:07;4.12;;;2.97;;
71176;SDS011;58877;51.992;4.504;2023-04-25T03:15:32;4.44;;;3.21;;
71176;SDS011;58877;51.992;4.504;2023-04-25T03:17:58;3.65;;;2.65;;
71176;SDS011;58877;51.992;4.504;2023-04-25T03:20:24;3.74;;;2.72;;
71176;SDS011;58877;51.992;4.504;2023-04-25T03:22:49;3.73;;;2.81;;
71176;SDS011;58877;51.992;4.504;2023-04-25T03:25:15;3.93;;;2.91;;
71176;SDS011;58877;51.992;4.504;2023-04-25T03:27:41;3.37;;;2.49;;
71176;SDS011;58877;51.992;4.504;2023-04-25T03:30:06;3.91;;;2.87;;
71176;SDS011;58877;51.992;4.504;2023-04-25T03:32:33;3.35;;;2.48;;
71176;SDS011;58877;51.992;4.504;2023-04-25T03:34:59;3.84;;;2.80;;
71176;SDS011;58877;51.992;4.504;2023-04-25T03:37:24;3.48;;;2.52;;
71176;SDS011;58877;51.992;4.504;2023-04-25T03:39:50;3.79;;;2.73;;
71176;SDS011;58877;51.992;4.504;2023-04-25T03:42:16;3.70;;;2.67;;
71176;SDS011;58877;51.992;4.504;2023-04-25T03:44:41;4.29;;;3.09;;
71176;SDS011;58877;51.992;4.504;2023-04-25T03:47:07;3.78;;;2.69;;
71176;SDS011;58877;51.992;4.504;2023-04-25T03:49:33;3.74;;;2.60;;
71176;SDS011;58877;51.992;4.504;2023-04-25T03:52:00;4.29;;;2.93;;
71176;SDS011;58877;51.992;4.504;2023-04-25T03:54:25;4.23;;;2.92;;
71176;SDS011;58877;51.992;4.504;2023-04-25T03:56:51;4.46;;;3.05;;
71176;SDS011;58877;51.992;4.504;2023-04-25T03:59:16;3.95;;;2.66;;
71176;SDS011;58877;51.992;4.504;2023-04-25T04:01:42;4.58;;;3.12;;
71176;SDS011;58877;51.992;4.504;2023-04-25T04:04:07;4.64;;;3.09;;
71176;SDS011;58877;51.992;4.504;2023-04-25T04:06:33;5.43;;;3.51;;
71176;SDS011;58877;51.992;4.504;2023-04-25T04:08:59;5.09;;;3.26;;
71176;SDS011;58877;51.992;4.504;2023-04-25T04:11:24;4.80;;;3.10;;
71176;SDS011;58877;51.992;4.504;2023-04-25T04:13:53;4.67;;;3.04;;
71176;SDS011;58877;51.992;4.504;2023-04-25T04:16:18;4.36;;;2.87;;
71176;SDS011;58877;51.992;4.504;2023-04-25T04:18:45;5.41;;;3.53;;
71176;SDS011;58877;51.992;4.504;2023-04-25T04:21:11;5.15;;;3.39;;
71176;SDS011;58877;51.992;4.504;2023-04-25T04:23:36;4.35;;;2.86;;
71176;SDS011;58877;51.992;4.504;2023-04-25T04:26:02;4.02;;;2.73;;
71176;SDS011;58877;51.992;4.504;2023-04-25T04:28:28;3.74;;;2.53;;
71176;SDS011;58877;51.992;4.504;2023-04-25T04:30:54;4.21;;;2.84;;
71176;SDS011;58877;51.992;4.504;2023-04-25T04:33:20;4.77;;;3.28;;
71176;SDS011;58877;51.992;4.504;2023-04-25T04:35:50;4.54;;;3.14;;
71176;SDS011;58877;51.992;4.504;2023-04-25T04:38:18;4.14;;;2.83;;
71176;SDS011;58877;51.992;4.504;2023-04-25T04:40:44;4.27;;;2.89;;
71176;SDS011;58877;51.992;4.504;2023-04-25T04:43:11;4.77;;;3.24;;
71176;SDS011;58877;51.992;4.504;2023-04-25T04:45:36;4.84;;;3.27;;
71176;SDS011;58877;51.992;4.504;2023-04-25T04:48:05;4.73;;;3.20;;
71176;SDS011;58877;51.992;4.504;2023-04-25T04:50:31;4.15;;;2.79;;
71176;SDS011;58877;51.992;4.504;2023-04-25T04:53:01;4.54;;;3.02;;
71176;SDS011;58877;51.992;4.504;2023-04-25T04:55:27;3.89;;;2.61;;
71176;SDS011;58877;51.992;4.504;2023-04-25T04:57:52;4.26;;;2.90;;
71176;SDS011;58877;51.992;4.504;2023-04-25T05:00:18;3.96;;;2.70;;
71176;SDS011;58877;51.992;4.504;2023-04-25T05:02:45;4.67;;;3.17;;
71176;SDS011;58877;51.992;4.504;2023-04-25T05:05:11;3.68;;;2.48;;
71176;SDS011;58877;51.992;4.504;2023-04-25T05:07:36;3.71;;;2.57;;
71176;SDS011;58877;51.992;4.504;2023-04-25T05:10:02;4.85;;;3.29;;
71176;SDS011;58877;51.992;4.504;2023-04-25T05:12:28;4.89;;;3.29;;
71176;SDS011;58877;51.992;4.504;2023-04-25T05:14:56;5.42;;;3.66;;
71176;SDS011;58877;51.992;4.504;2023-04-25T05:17:22;5.38;;;3.59;;
71176;SDS011;58877;51.992;4.504;2023-04-25T05:19:48;5.12;;;3.35;;
71176;SDS011;58877;51.992;4.504;2023-04-25T05:22:13;6.36;;;4.18;;
71176;SDS011;58877;51.992;4.504;2023-04-25T05:24:39;5.13;;;3.45;;
71176;SDS011;58877;51.992;4.504;2023-04-25T05:27:05;5.30;;;3.61;;
71176;SDS011;58877;51.992;4.504;2023-04-25T05:29:31;4.76;;;3.30;;
71176;SDS011;58877;51.992;4.504;2023-04-25T05:31:56;4.71;;;3.24;;
71176;SDS011;58877;51.992;4.504;2023-04-25T05:34:22;3.34;;;2.33;;
71176;SDS011;58877;51.992;4.504;2023-04-25T05:36:48;4.49;;;3.09;;
71176;SDS011;58877;51.992;4.504;2023-04-25T05:39:17;3.52;;;2.40;;
71176;SDS011;58877;51.992;4.504;2023-04-25T05:41:42;3.25;;;2.21;;
71176;SDS011;58877;51.992;4.504;2023-04-25T05:44:13;3.50;;;2.37;;
71176;SDS011;58877;51.992;4.504;2023-04-25T05:46:41;3.35;;;2.29;;
71176;SDS011;58877;51.992;4.504;2023-04-25T05:49:06;3.04;;;2.08;;
71176;SDS011;58877;51.992;4.504;2023-04-25T05:51:32;3.02;;;2.06;;
71176;SDS011;58877;51.992;4.504;2023-04-25T05:53:57;3.37;;;2.34;;
71176;SDS011;58877;51.992;4.504;2023-04-25T05:56:23;2.84;;;2.01;;
71176;SDS011;58877;51.992;4.504;2023-04-25T05:58:49;2.67;;;1.88;;
71176;SDS011;58877;51.992;4.504;2023-04-25T06:01:14;3.13;;;2.25;;
71176;SDS011;58877;51.992;4.504;2023-04-25T06:03:40;2.39;;;1.73;;
71176;SDS011;58877;51.992;4.504;2023-04-25T06:06:08;1.86;;;1.36;;
71176;SDS011;58877;51.992;4.504;2023-04-25T06:08:34;2.03;;;1.47;;
71176;SDS011;58877;51.992;4.504;2023-04-25T06:11:00;1.83;;;1.34;;
71176;SDS011;58877;51.992;4.504;2023-04-25T06:13:25;1.89;;;1.40;;
71176;SDS011;58877;51.992;4.504;2023-04-25T06:15:51;1.98;;;1.48;;
71176;SDS011;58877;51.992;4.504;2023-04-25T06:18:17;2.09;;;1.58;;
71176;SDS011;58877;51.992;4.504;2023-04-25T06:20:43;1.58;;;1.23;;
71176;SDS011;58877;51.992;4.504;2023-04-25T06:23:08;1.74;;;1.35;;
71176;SDS011;58877;51.992;4.504;2023-04-25T06:25:34;1.53;;;1.20;;
71176;SDS011;58877;51.992;4.504;2023-04-25T06:27:59;1.45;;;1.16;;
71176;SDS011;58877;51.992;4.504;2023-04-25T06:30:28;1.34;;;1.09;;
71176;SDS011;58877;51.992;4.504;2023-04-25T06:32:53;1.76;;;1.42;;
71176;SDS011;58877;51.992;4.504;2023-04-25T06:35:20;2.13;;;1.72;;
71176;SDS011;58877;51.992;4.504;2023-04-25T06:37:46;1.85;;;1.48;;
71176;SDS011;58877;51.992;4.504;2023-04-25T06:40:14;1.81;;;1.45;;
71176;SDS011;58877;51.992;4.504;2023-04-25T06:42:41;1.79;;;1.44;;
71176;SDS011;58877;51.992;4.504;2023-04-25T06:45:12;1.64;;;1.32;;
71176;SDS011;58877;51.992;4.504;2023-04-25T06:47:38;1.85;;;1.50;;
71176;SDS011;58877;51.992;4.504;2023-04-25T06:50:03;2.26;;;1.83;;
71176;SDS011;58877;51.992;4.504;2023-04-25T06:52:29;2.01;;;1.62;;
71176;SDS011;58877;51.992;4.504;2023-04-25T06:54:55;1.77;;;1.43;;
71176;SDS011;58877;51.992;4.504;2023-04-25T06:57:21;2.00;;;1.60;;
71176;SDS011;58877;51.992;4.504;2023-04-25T06:59:47;2.14;;;1.68;;
71176;SDS011;58877;51.992;4.504;2023-04-25T07:02:15;2.22;;;1.72;;
71176;SDS011;58877;51.992;4.504;2023-04-25T07:04:46;1.97;;;1.55;;
71176;SDS011;58877;51.992;4.504;2023-04-25T07:07:11;2.19;;;1.71;;
71176;SDS011;58877;51.992;4.504;2023-04-25T07:09:37;2.09;;;1.61;;
71176;SDS011;58877;51.992;4.504;2023-04-25T07:12:02;2.26;;;1.74;;
71176;SDS011;58877;51.992;4.504;2023-04-25T07:14:28;1.80;;;1.39;;
71176;SDS011;58877;51.992;4.504;2023-04-25T07:16:54;2.23;;;1.72;;
71176;SDS011;58877;51.992;4.504;2023-04-25T07:19:21;2.39;;;1.80;;
71176;SDS011;58877;51.992;4.504;2023-04-25T07:21:49;2.80;;;2.12;;
71176;SDS011;58877;51.992;4.504;2023-04-25T07:24:15;3.14;;;2.39;;
71176;SDS011;58877;51.992;4.504;2023-04-25T07:26:40;2.37;;;1.81;;
71176;SDS011;58877;51.992;4.504;2023-04-25T07:29:07;3.09;;;2.35;;
71176;SDS011;58877;51.992;4.504;2023-04-25T07:31:33;2.77;;;2.08;;
71176;SDS011;58877;51.992;4.504;2023-04-25T07:33:58;2.70;;;2.01;;
71176;SDS011;58877;51.992;4.504;2023-04-25T07:36:24;2.35;;;1.76;;
71176;SDS011;58877;51.992;4.504;2023-04-25T07:38:51;2.84;;;2.08;;
71176;SDS011;58877;51.992;4.504;2023-04-25T07:41:17;3.04;;;2.19;;
71176;SDS011;58877;51.992;4.504;2023-04-25T07:43:42;2.58;;;1.88;;
71176;SDS011;58877;51.992;4.504;2023-04-25T07:46:08;2.59;;;1.85;;
71176;SDS011;58877;51.992;4.504;2023-04-25T07:48:34;2.92;;;2.06;;
71176;SDS011;58877;51.992;4.504;2023-04-25T07:51:05;2.27;;;1.61;;
71176;SDS011;58877;51.992;4.504;2023-04-25T07:53:32;2.64;;;1.79;;
71176;SDS011;58877;51.992;4.504;2023-04-25T07:55:59;2.92;;;1.91;;
71176;SDS011;58877;51.992;4.504;2023-04-25T07:58:25;2.58;;;1.67;;
71176;SDS011;58877;51.992;4.504;2023-04-25T08:00:59;2.65;;;1.69;;
71176;SDS011;58877;51.992;4.504;2023-04-25T09:24:18;2.68;;;1.72;;
71176;SDS011;58877;51.992;4.504;2023-04-25T09:27:08;2.49;;;1.62;;
71176;SDS011;58877;51.992;4.504;2023-04-25T09:29:36;2.37;;;1.56;;
71176;SDS011;58877;51.992;4.504;2023-04-25T09:32:22;2.31;;;1.51;;
71176;SDS011;58877;51.992;4.504;2023-04-25T09:34:53;2.48;;;1.61;;
71176;SDS011;58877;51.992;4.504;2023-04-25T09:37:29;2.69;;;1.76;;
71176;SDS011;58877;51.992;4.504;2023-04-25T09:39:57;2.67;;;1.73;;
71176;SDS011;58877;51.992;4.504;2023-04-25T09:42:25;2.86;;;1.86;;
71176;SDS011;58877;51.992;4.504;2023-04-25T09:44:54;2.54;;;1.63;;
71176;SDS011;58877;51.992;4.504;2023-04-25T09:47:22;3.28;;;2.11;;
71176;SDS011;58877;51.992;4.504;2023-04-25T09:49:50;2.55;;;1.68;;
71176;SDS011;58877;51.992;4.504;2023-04-25T09:52:18;3.16;;;2.04;;
71176;SDS011;58877;51.992;4.504;2023-04-25T09:54:45;2.59;;;1.66;;
71176;SDS011;58877;51.992;4.504;2023-04-25T09:57:14;2.66;;;1.69;;
71176;SDS011;58877;51.992;4.504;2023-04-25T09:59:44;3.91;;;2.50;;
71176;SDS011;58877;51.992;4.504;2023-04-25T10:02:10;3.60;;;2.31;;
71176;SDS011;58877;51.992;4.504;2023-04-25T10:04:37;3.11;;;1.98;;
71176;SDS011;58877;51.992;4.504;2023-04-25T10:07:07;3.34;;;2.12;;
71176;SDS011;58877;51.992;4.504;2023-04-25T10:09:36;3.02;;;1.91;;
71176;SDS011;58877;51.992;4.504;2023-04-25T10:12:04;3.27;;;2.08;;
71176;SDS011;58877;51.992;4.504;2023-04-25T10:14:31;3.10;;;1.98;;
71176;SDS011;58877;51.992;4.504;2023-04-25T10:16:57;4.04;;;2.56;;
71176;SDS011;58877;51.992;4.504;2023-04-25T10:19:24;3.51;;;2.19;;
71176;SDS011;58877;51.992;4.504;2023-04-25T10:21:55;4.45;;;2.75;;
71176;SDS011;58877;51.992;4.504;2023-04-25T10:24:40;4.30;;;2.64;;
71176;SDS011;58877;51.992;4.504;2023-04-25T10:27:08;3.64;;;2.24;;
71176;SDS011;58877;51.992;4.504;2023-04-25T10:29:34;3.11;;;1.91;;
71176;SDS011;58877;51.992;4.504;2023-04-25T10:32:00;3.47;;;2.14;;
71176;SDS011;58877;51.992;4.504;2023-04-25T10:34:43;4.20;;;2.60;;
71176;SDS011;58877;51.992;4.504;2023-04-25T10:37:13;4.24;;;2.59;;
71176;SDS011;58877;51.992;4.504;2023-04-25T10:39:39;3.86;;;2.35;;
71176;SDS011;58877;51.992;4.504;2023-04-25T10:42:07;5.00;;;3.07;;
71176;SDS011;58877;51.992;4.504;2023-04-25T10:44:33;3.71;;;2.29;;
71176;SDS011;58877;51.992;4.504;2023-04-25T10:47:02;3.33;;;2.08;;
71176;SDS011;58877;51.992;4.504;2023-04-25T10:52:24;3.78;;;2.40;;
71176;SDS011;58877;51.992;4.504;2023-04-25T10:54:53;2.97;;;1.87;;
71176;SDS011;58877;51.992;4.504;2023-04-25T10:57:40;2.41;;;1.54;;
71176;SDS011;58877;51.992;4.504;2023-04-25T11:02:45;2.62;;;1.67;;
71176;SDS011;58877;51.992;4.504;2023-04-25T11:05:18;2.76;;;1.78;;
71176;SDS011;58877;51.992;4.504;2023-04-25T11:07:49;3.49;;;2.25;;
71176;SDS011;58877;51.992;4.504;2023-04-25T11:10:17;3.46;;;2.20;;
71176;SDS011;58877;51.992;4.504;2023-04-25T11:12:44;2.69;;;1.70;;
71176;SDS011;58877;51.992;4.504;2023-04-25T11:15:11;3.13;;;2.01;;
71176;SDS011;58877;51.992;4.504;2023-04-25T11:17:36;3.32;;;2.13;;
71176;SDS011;58877;51.992;4.504;2023-04-25T11:20:02;2.96;;;1.88;;
71176;SDS011;58877;51.992;4.504;2023-04-25T11:22:32;3.13;;;1.99;;
71176;SDS011;58877;51.992;4.504;2023-04-25T11:25:03;2.44;;;1.57;;
71176;SDS011;58877;51.992;4.504;2023-04-25T11:27:30;2.74;;;1.79;;
71176;SDS011;58877;51.992;4.504;2023-04-25T11:29:55;3.41;;;2.21;;
71176;SDS011;58877;51.992;4.504;2023-04-25T11:32:21;3.72;;;2.47;;
71176;SDS011;58877;51.992;4.504;2023-04-25T11:34:46;3.11;;;2.07;;
71176;SDS011;58877;51.992;4.504;2023-04-25T11:37:12;2.91;;;1.92;;
71176;SDS011;58877;51.992;4.504;2023-04-25T11:39:42;3.19;;;2.10;;
71176;SDS011;58877;51.992;4.504;2023-04-25T11:42:10;3.42;;;2.23;;
71176;SDS011;58877;51.992;4.504;2023-04-25T11:44:37;3.19;;;2.07;;
71176;SDS011;58877;51.992;4.504;2023-04-25T11:47:04;2.50;;;1.62;;
71176;SDS011;58877;51.992;4.504;2023-04-25T11:49:30;3.34;;;2.17;;
71176;SDS011;58877;51.992;4.504;2023-04-25T11:51:57;2.53;;;1.62;;
71176;SDS011;58877;51.992;4.504;2023-04-25T11:54:22;3.21;;;2.05;;
71176;SDS011;58877;51.992;4.504;2023-04-25T11:56:48;3.64;;;2.32;;
71176;SDS011;58877;51.992;4.504;2023-04-25T11:59:14;3.58;;;2.30;;
71176;SDS011;58877;51.992;4.504;2023-04-25T12:01:40;3.25;;;2.11;;
71176;SDS011;58877;51.992;4.504;2023-04-25T12:04:16;3.57;;;2.28;;
71176;SDS011;58877;51.992;4.504;2023-04-25T12:06:46;3.35;;;2.18;;
71176;SDS011;58877;51.992;4.504;2023-04-25T12:09:14;3.00;;;1.97;;
71176;SDS011;58877;51.992;4.504;2023-04-25T12:11:47;2.93;;;1.94;;
71176;SDS011;58877;51.992;4.504;2023-04-25T12:16:51;2.86;;;1.91;;
71176;SDS011;58877;51.992;4.504;2023-04-25T12:19:17;2.60;;;1.76;;
71176;SDS011;58877;51.992;4.504;2023-04-25T12:21:44;2.73;;;1.84;;
71176;SDS011;58877;51.992;4.504;2023-04-25T12:29:19;4.28;;;2.84;;
71176;SDS011;58877;51.992;4.504;2023-04-25T12:31:47;2.96;;;1.99;;
71176;SDS011;58877;51.992;4.504;2023-04-25T12:34:14;3.08;;;2.11;;
71176;SDS011;58877;51.992;4.504;2023-04-25T12:36:40;2.56;;;1.74;;
71176;SDS011;58877;51.992;4.504;2023-04-25T12:39:06;3.66;;;2.44;;
71176;SDS011;58877;51.992;4.504;2023-04-25T12:41:32;3.78;;;2.50;;
71176;SDS011;58877;51.992;4.504;2023-04-25T12:43:58;3.56;;;2.36;;
71176;SDS011;58877;51.992;4.504;2023-04-25T12:46:23;3.29;;;2.17;;
71176;SDS011;58877;51.992;4.504;2023-04-25T12:48:49;2.97;;;1.94;;
71176;SDS011;58877;51.992;4.504;2023-04-25T12:51:15;2.81;;;1.84;;
71176;SDS011;58877;51.992;4.504;2023-04-25T12:53:41;3.43;;;2.27;;
71176;SDS011;58877;51.992;4.504;2023-04-25T12:56:09;2.38;;;1.57;;
71176;SDS011;58877;51.992;4.504;2023-04-25T12:58:35;3.54;;;2.35;;
71176;SDS011;58877;51.992;4.504;2023-04-25T13:01:01;3.00;;;1.94;;
71176;SDS011;58877;51.992;4.504;2023-04-25T13:03:26;3.25;;;2.08;;
71176;SDS011;58877;51.992;4.504;2023-04-25T13:05:52;3.02;;;1.98;;
71176;SDS011;58877;51.992;4.504;2023-04-25T13:08:18;2.85;;;1.92;;
71176;SDS011;58877;51.992;4.504;2023-04-25T13:10:44;2.89;;;1.99;;
71176;SDS011;58877;51.992;4.504;2023-04-25T13:13:10;2.79;;;1.93;;
71176;SDS011;58877;51.992;4.504;2023-04-25T13:15:35;3.24;;;2.21;;
71176;SDS011;58877;51.992;4.504;2023-04-25T13:18:02;3.31;;;2.23;;
71176;SDS011;58877;51.992;4.504;2023-04-25T13:20:29;3.21;;;2.15;;
71176;SDS011;58877;51.992;4.504;2023-04-25T13:22:54;3.53;;;2.39;;
71176;SDS011;58877;51.992;4.504;2023-04-25T13:25:20;3.16;;;2.14;;
71176;SDS011;58877;51.992;4.504;2023-04-25T13:27:47;3.08;;;2.06;;
71176;SDS011;58877;51.992;4.504;2023-04-25T13:30:13;2.88;;;1.91;;
71176;SDS011;58877;51.992;4.504;2023-04-25T13:32:39;3.66;;;2.39;;
71176;SDS011;58877;51.992;4.504;2023-04-25T13:35:06;2.83;;;1.87;;
71176;SDS011;58877;51.992;4.504;2023-04-25T13:37:37;2.81;;;1.85;;
71176;SDS011;58877;51.992;4.504;2023-04-25T13:40:04;3.30;;;2.18;;
71176;SDS011;58877;51.992;4.504;2023-04-25T13:42:34;3.50;;;2.39;;
71176;SDS011;58877;51.992;4.504;2023-04-25T13:45:00;3.30;;;2.26;;
71176;SDS011;58877;51.992;4.504;2023-04-25T13:47:26;3.58;;;2.42;;
71176;SDS011;58877;51.992;4.504;2023-04-25T13:49:53;3.04;;;2.09;;
71176;SDS011;58877;51.992;4.504;2023-04-25T13:52:19;2.88;;;2.00;;
71176;SDS011;58877;51.992;4.504;2023-04-25T13:54:45;3.25;;;2.24;;
71176;SDS011;58877;51.992;4.504;2023-04-25T13:57:11;2.87;;;1.96;;
71176;SDS011;58877;51.992;4.504;2023-04-25T13:59:38;3.37;;;2.34;;
71176;SDS011;58877;51.992;4.504;2023-04-25T14:02:06;2.60;;;1.85;;
71176;SDS011;58877;51.992;4.504;2023-04-25T14:04:32;2.81;;;2.01;;
71176;SDS011;58877;51.992;4.504;2023-04-25T14:06:58;2.62;;;1.86;;
71176;SDS011;58877;51.992;4.504;2023-04-25T14:09:24;2.25;;;1.63;;
71176;SDS011;58877;51.992;4.504;2023-04-25T14:11:52;2.26;;;1.65;;
71176;SDS011;58877;51.992;4.504;2023-04-25T14:14:18;2.05;;;1.49;;
71176;SDS011;58877;51.992;4.504;2023-04-25T14:16:46;1.92;;;1.42;;
71176;SDS011;58877;51.992;4.504;2023-04-25T14:19:16;2.12;;;1.57;;
71176;SDS011;58877;51.992;4.504;2023-04-25T14:21:44;2.29;;;1.67;;
71176;SDS011;58877;51.992;4.504;2023-04-25T14:24:11;2.18;;;1.56;;
71176;SDS011;58877;51.992;4.504;2023-04-25T14:26:38;2.65;;;1.91;;
71176;SDS011;58877;51.992;4.504;2023-04-25T14:29:04;1.59;;;1.17;;
71176;SDS011;58877;51.992;4.504;2023-04-25T14:31:32;2.21;;;1.65;;
71176;SDS011;58877;51.992;4.504;2023-04-25T14:33:57;3.07;;;2.21;;
71176;SDS011;58877;51.992;4.504;2023-04-25T14:36:23;2.58;;;1.84;;
71176;SDS011;58877;51.992;4.504;2023-04-25T14:38:49;2.56;;;1.84;;
71176;SDS011;58877;51.992;4.504;2023-04-25T14:41:15;2.21;;;1.59;;
71176;SDS011;58877;51.992;4.504;2023-04-25T14:43:40;2.65;;;1.92;;
71176;SDS011;58877;51.992;4.504;2023-04-25T14:46:06;2.15;;;1.57;;
71176;SDS011;58877;51.992;4.504;2023-04-25T14:48:32;2.10;;;1.53;;
71176;SDS011;58877;51.992;4.504;2023-04-25T14:50:58;2.41;;;1.78;;
71176;SDS011;58877;51.992;4.504;2023-04-25T14:53:25;2.45;;;1.82;;
71176;SDS011;58877;51.992;4.504;2023-04-25T14:55:52;2.26;;;1.68;;
71176;SDS011;58877;51.992;4.504;2023-04-25T14:58:18;2.28;;;1.71;;
71176;SDS011;58877;51.992;4.504;2023-04-25T15:00:46;1.99;;;1.51;;
71176;SDS011;58877;51.992;4.504;2023-04-25T15:03:12;2.12;;;1.59;;
71176;SDS011;58877;51.992;4.504;2023-04-25T15:05:39;2.40;;;1.77;;
71176;SDS011;58877;51.992;4.504;2023-04-25T15:08:05;2.74;;;2.03;;
71176;SDS011;58877;51.992;4.504;2023-04-25T15:10:31;2.81;;;2.06;;
71176;SDS011;58877;51.992;4.504;2023-04-25T15:12:57;3.78;;;2.76;;
71176;SDS011;58877;51.992;4.504;2023-04-25T15:15:23;3.45;;;2.46;;
71176;SDS011;58877;51.992;4.504;2023-04-25T15:17:49;3.56;;;2.58;;
71176;SDS011;58877;51.992;4.504;2023-04-25T15:20:15;3.23;;;2.38;;
71176;SDS011;58877;51.992;4.504;2023-04-25T15:22:42;3.37;;;2.56;;
71176;SDS011;58877;51.992;4.504;2023-04-25T15:25:10;3.02;;;2.31;;
71176;SDS011;58877;51.992;4.504;2023-04-25T15:27:36;2.18;;;1.68;;
71176;SDS011;58877;51.992;4.504;2023-04-25T15:30:06;3.02;;;2.35;;
71176;SDS011;58877;51.992;4.504;2023-04-25T15:32:33;2.72;;;2.12;;
71176;SDS011;58877;51.992;4.504;2023-04-25T15:35:01;2.31;;;1.83;;
71176;SDS011;58877;51.992;4.504;2023-04-25T15:37:30;1.77;;;1.44;;
71176;SDS011;58877;51.992;4.504;2023-04-25T15:40:06;1.70;;;1.36;;
71176;SDS011;58877;51.992;4.504;2023-04-25T15:42:38;2.45;;;1.93;;
71176;SDS011;58877;51.992;4.504;2023-04-25T15:45:05;2.03;;;1.57;;
71176;SDS011;58877;51.992;4.504;2023-04-25T15:47:33;2.52;;;1.90;;
71176;SDS011;58877;51.992;4.504;2023-04-25T15:50:00;2.66;;;1.97;;
71176;SDS011;58877;51.992;4.504;2023-04-25T15:52:26;2.37;;;1.77;;
71176;SDS011;58877;51.992;4.504;2023-04-25T15:54:52;2.10;;;1.58;;
71176;SDS011;58877;51.992;4.504;2023-04-25T15:57:19;2.27;;;1.69;;
71176;SDS011;58877;51.992;4.504;2023-04-25T15:59:44;2.28;;;1.67;;
71176;SDS011;58877;51.992;4.504;2023-04-25T16:02:11;2.40;;;1.70;;
71176;SDS011;58877;51.992;4.504;2023-04-25T16:04:37;2.49;;;1.74;;
71176;SDS011;58877;51.992;4.504;2023-04-25T16:07:04;2.65;;;1.87;;
71176;SDS011;58877;51.992;4.504;2023-04-25T16:09:32;2.35;;;1.67;;
71176;SDS011;58877;51.992;4.504;2023-04-25T16:12:01;2.47;;;1.77;;
71176;SDS011;58877;51.992;4.504;2023-04-25T16:14:27;2.73;;;1.98;;
71176;SDS011;58877;51.992;4.504;2023-04-25T16:16:53;2.95;;;2.16;;
71176;SDS011;58877;51.992;4.504;2023-04-25T16:19:19;2.89;;;2.05;;